createdAt,value
2018-08-30T00:01:10.338Z,14.33
2018-08-30T00:06:14.382Z,14.73
2018-08-30T00:11:18.175Z,14.27
2018-08-30T00:16:21.982Z,13.23
2018-08-30T00:21:26.126Z,13.50
2018-08-30T00:26:30.206Z,14.90
2018-08-30T00:31:34.235Z,14.97
2018-08-30T00:36:38.426Z,15.73
2018-08-30T00:41:42.491Z,18.70
2018-08-30T00:46:46.547Z,19.77
2018-08-30T00:51:50.586Z,22.40
2018-08-30T00:56:54.682Z,26.57
2018-08-30T01:01:58.474Z,26.50
2018-08-30T01:07:02.542Z,25.43
2018-08-30T01:12:06.674Z,25.30
2018-08-30T01:17:10.777Z,29.23
2018-08-30T01:22:14.816Z,33.53
2018-08-30T01:27:18.616Z,37.10
2018-08-30T01:32:22.404Z,38.08
2018-08-30T01:37:26.459Z,38.53
2018-08-30T01:42:30.535Z,37.10
2018-08-30T01:47:34.598Z,39.17
2018-08-30T01:52:38.730Z,39.10
2018-08-30T01:57:42.534Z,39.10
2018-08-30T02:02:46.639Z,40.77
2018-08-30T02:07:50.667Z,41.70
2018-08-30T02:12:54.545Z,44.43
2018-08-30T02:17:58.610Z,45.97
2018-08-30T02:23:02.430Z,43.83
2018-08-30T02:28:06.464Z,42.10
2018-08-30T02:33:10.556Z,42.07
2018-08-30T02:38:14.586Z,42.50
2018-08-30T02:43:18.686Z,42.23
2018-08-30T02:48:22.724Z,38.57
2018-08-30T02:53:26.509Z,39.97
2018-08-30T02:58:30.326Z,40.37
2018-08-30T03:03:34.359Z,41.60
2018-08-30T03:08:38.422Z,44.57
2018-08-30T03:13:42.456Z,44.63
2018-08-30T03:18:46.408Z,43.57
2018-08-30T03:23:50.466Z,43.10
2018-08-30T03:28:54.564Z,43.53
2018-08-30T03:33:58.627Z,43.47
2018-08-30T03:39:02.774Z,41.07
2018-08-30T03:44:06.838Z,39.80
2018-08-30T03:49:11.016Z,38.73
2018-08-30T03:54:14.839Z,37.50
2018-08-30T03:59:18.934Z,38.63
2018-08-30T04:04:23.073Z,37.57
2018-08-30T04:09:27.123Z,36.95
2018-08-30T04:14:31.188Z,36.77
2018-08-30T04:19:35.006Z,36.20
2018-08-30T04:24:39.064Z,37.60
2018-08-30T04:29:43.137Z,35.70
2018-08-30T04:34:47.247Z,38.40
2018-08-30T04:39:51.069Z,37.10
2018-08-30T04:44:54.949Z,37.17
2018-08-30T04:49:58.818Z,38.33
2018-08-30T04:55:02.819Z,37.03
2018-08-30T05:00:06.662Z,37.83
2018-08-30T05:05:10.734Z,38.10
2018-08-30T05:10:14.841Z,35.93
2018-08-30T05:15:18.896Z,37.05
2018-08-30T05:20:23.215Z,35.00
2018-08-30T05:25:27.063Z,35.23
2018-08-30T05:30:31.316Z,35.23
2018-08-30T05:35:35.432Z,36.47
2018-08-30T05:40:39.610Z,34.67
2018-08-30T05:45:43.658Z,36.73
2018-08-30T05:50:47.751Z,34.13
2018-08-30T05:55:52.139Z,34.67
2018-08-30T06:00:56.021Z,34.60
2018-08-30T06:05:59.865Z,35.97
2018-08-30T06:11:03.679Z,35.37
2018-08-30T06:16:07.840Z,33.03
2018-08-30T06:21:11.875Z,34.63
2018-08-30T06:26:15.712Z,33.98
2018-08-30T06:31:19.784Z,32.17
2018-08-30T06:36:23.613Z,31.53
2018-08-30T06:41:27.429Z,32.20
2018-08-30T06:46:31.261Z,30.87
2018-08-30T06:51:35.326Z,29.53
2018-08-30T06:56:39.507Z,29.70
2018-08-30T07:01:43.569Z,28.73
2018-08-30T07:06:47.671Z,27.60
2018-08-30T07:11:51.719Z,27.47
2018-08-30T07:16:55.894Z,27.07
2018-08-30T07:22:06.271Z,27.27
2018-08-30T07:27:10.503Z,26.43
2018-08-30T07:32:14.310Z,25.77
2018-08-30T07:37:18.135Z,23.50
2018-08-30T07:42:22.213Z,22.20
2018-08-30T07:47:26.049Z,20.73
2018-08-30T07:52:30.331Z,21.13
2018-08-30T07:57:37.234Z,19.43
2018-08-30T08:02:41.028Z,16.57
2018-08-30T08:07:44.837Z,15.73
2018-08-30T08:12:48.980Z,15.20
2018-08-30T08:17:52.994Z,14.20
2018-08-30T08:22:57.063Z,11.67
2018-08-30T08:28:01.132Z,10.75
2018-08-30T08:33:05.256Z,8.17
2018-08-30T08:38:09.105Z,8.58
2018-08-30T08:43:13.138Z,7.37
2018-08-30T08:48:17.226Z,7.07
2018-08-30T08:53:21.276Z,7.13
2018-08-30T08:58:25.326Z,7.13
2018-08-30T09:03:29.133Z,6.80
2018-08-30T09:08:33.221Z,7.93
2018-08-30T09:13:37.351Z,6.57
2018-08-30T09:18:41.383Z,5.67
2018-08-30T09:23:45.546Z,5.90
2018-08-30T09:28:49.381Z,5.27
2018-08-30T09:33:53.577Z,5.07
2018-08-30T09:38:57.630Z,5.30
2018-08-30T09:44:01.741Z,6.00
2018-08-30T09:49:06.410Z,5.87
2018-08-30T09:54:10.542Z,6.03
2018-08-30T09:59:14.366Z,6.70
2018-08-30T10:04:19.176Z,5.67
2018-08-30T10:09:23.293Z,5.00
2018-08-30T10:14:27.347Z,4.30
2018-08-30T10:19:31.395Z,4.53
2018-08-30T10:24:35.206Z,4.20
2018-08-30T10:29:39.290Z,4.20
2018-08-30T10:34:43.359Z,3.80
2018-08-30T10:39:47.557Z,3.40
2018-08-30T10:44:51.380Z,3.30
2018-08-30T10:49:55.530Z,2.83
2018-08-30T10:54:59.527Z,3.00
2018-08-30T11:00:03.664Z,3.53
2018-08-30T11:05:07.771Z,3.23
2018-08-30T11:10:11.813Z,2.97
2018-08-30T11:15:15.693Z,2.93
2018-08-30T11:20:19.794Z,2.90
2018-08-30T11:25:23.867Z,2.70
2018-08-30T11:30:27.922Z,2.73
2018-08-30T11:35:31.990Z,3.00
2018-08-30T11:40:36.051Z,2.80
2018-08-30T11:45:40.130Z,2.60
2018-08-30T11:50:44.203Z,3.22
2018-08-30T11:55:48.386Z,2.60
2018-08-30T12:00:52.547Z,2.60
2018-08-30T12:05:56.511Z,2.20
2018-08-30T12:11:00.787Z,2.87
2018-08-30T12:16:05.275Z,2.20
2018-08-30T12:21:09.386Z,2.27
2018-08-30T12:26:13.213Z,2.10
2018-08-30T12:31:17.608Z,2.10
2018-08-30T12:36:21.651Z,2.37
2018-08-30T12:41:25.871Z,2.43
2018-08-30T12:46:29.630Z,2.10
2018-08-30T12:51:33.874Z,2.30
2018-08-30T12:56:37.876Z,2.30
2018-08-30T13:01:41.939Z,2.10
2018-08-30T13:06:50.113Z,1.80
2018-08-30T13:11:54.441Z,2.10
2018-08-30T13:16:58.742Z,1.90
2018-08-30T13:22:02.999Z,1.80
2018-08-30T13:27:07.033Z,1.90
2018-08-30T13:32:11.128Z,1.67
2018-08-30T13:37:15.308Z,1.43
2018-08-30T13:42:19.365Z,1.80
2018-08-30T13:47:23.142Z,1.67
2018-08-30T13:52:27.335Z,1.53
2018-08-30T13:57:31.424Z,1.80
2018-08-30T14:02:35.606Z,1.83
2018-08-30T14:07:39.427Z,2.00
2018-08-30T14:12:43.526Z,1.77
2018-08-30T14:17:47.318Z,1.63
2018-08-30T14:22:51.234Z,1.70
2018-08-30T14:27:55.346Z,1.90
2018-08-30T14:32:59.448Z,1.90
2018-08-30T14:38:03.493Z,2.23
2018-08-30T14:43:07.391Z,2.17
2018-08-30T14:48:11.206Z,2.10
2018-08-30T14:53:15.341Z,2.10
2018-08-30T14:58:19.086Z,2.20
2018-08-30T15:03:23.230Z,1.80
2018-08-30T15:08:27.299Z,2.00
2018-08-30T15:13:31.358Z,2.10
2018-08-30T15:18:35.559Z,2.03
2018-08-30T15:23:39.438Z,2.20
2018-08-30T15:28:43.493Z,1.90
2018-08-30T15:33:47.447Z,2.37
2018-08-30T15:38:51.403Z,2.00
2018-08-30T15:43:55.238Z,2.10
2018-08-30T15:48:59.438Z,1.80
2018-08-30T15:54:03.415Z,1.73
2018-08-30T15:59:07.256Z,1.83
2018-08-30T16:04:11.319Z,2.10
2018-08-30T16:09:15.390Z,2.20
2018-08-30T16:14:19.801Z,2.13
2018-08-30T16:19:23.904Z,2.10
2018-08-30T16:24:28.006Z,2.10
2018-08-30T16:29:31.885Z,2.00
2018-08-30T16:34:35.954Z,1.97
2018-08-30T16:39:39.900Z,2.80
2018-08-30T16:44:44.034Z,2.70
2018-08-30T16:49:48.153Z,1.92
2018-08-30T16:54:51.991Z,2.20
2018-08-30T16:59:56.091Z,2.30
2018-08-30T17:05:00.143Z,1.70
2018-08-30T17:10:04.217Z,2.47
2018-08-30T17:15:08.294Z,2.08
2018-08-30T17:20:21.294Z,2.17
2018-08-30T17:25:25.475Z,2.30
2018-08-30T17:30:29.446Z,2.08
2018-08-30T17:35:33.368Z,2.63
2018-08-30T17:40:37.423Z,1.73
2018-08-30T17:45:41.529Z,1.90
2018-08-30T17:50:45.355Z,1.90
2018-08-30T17:55:49.296Z,1.80
2018-08-30T18:00:53.370Z,1.92
2018-08-30T18:05:57.510Z,2.30
2018-08-30T18:11:01.642Z,1.97
2018-08-30T18:16:06.684Z,1.60
2018-08-30T18:21:10.914Z,1.97
2018-08-30T18:26:16.075Z,2.00
2018-08-30T18:31:20.188Z,2.40
2018-08-30T18:36:24.043Z,1.77
2018-08-30T18:41:28.107Z,2.00
2018-08-30T18:46:32.566Z,1.70
2018-08-30T18:51:36.634Z,2.17
2018-08-30T18:56:43.264Z,2.00
2018-08-30T19:01:47.389Z,2.23
2018-08-30T19:06:51.430Z,2.70
2018-08-30T19:11:55.559Z,2.40
2018-08-30T19:17:04.990Z,2.40
2018-08-30T19:22:09.078Z,2.20
2018-08-30T19:27:13.120Z,2.30
2018-08-30T19:32:17.268Z,2.67
2018-08-30T19:37:21.318Z,2.73
2018-08-30T19:42:25.137Z,2.67
2018-08-30T19:47:29.179Z,2.30
2018-08-30T19:52:33.272Z,2.50
2018-08-30T19:57:37.302Z,2.73
2018-08-30T20:02:42.221Z,2.50
2018-08-30T20:07:46.030Z,2.17
2018-08-30T20:12:49.853Z,2.50
2018-08-30T20:17:53.931Z,2.50
2018-08-30T20:22:57.962Z,2.90
2018-08-30T20:28:02.031Z,2.60
2018-08-30T20:33:06.404Z,3.00
2018-08-30T20:38:10.490Z,2.30
2018-08-30T20:43:14.543Z,2.70
2018-08-30T20:48:18.350Z,2.47
2018-08-30T20:53:22.411Z,2.83
2018-08-30T20:58:26.458Z,3.00
2018-08-30T21:03:30.511Z,2.60
2018-08-30T21:08:34.594Z,2.00
2018-08-30T21:13:38.675Z,2.20
2018-08-30T21:18:42.486Z,2.50
2018-08-30T21:23:46.610Z,2.00
2018-08-30T21:28:50.658Z,2.70
2018-08-30T21:33:54.739Z,2.85
2018-08-30T21:38:58.658Z,2.92
2018-08-30T21:44:02.849Z,2.70
2018-08-30T21:49:06.737Z,2.35
2018-08-30T21:54:10.841Z,2.63
2018-08-30T21:59:14.894Z,2.53
2018-08-30T22:04:19.022Z,2.53
2018-08-30T22:09:23.150Z,2.63
2018-08-30T22:14:27.201Z,2.73
2018-08-30T22:19:31.286Z,2.93
2018-08-30T22:24:35.081Z,2.73
2018-08-30T22:29:39.228Z,2.60
2018-08-30T22:34:43.273Z,2.63
2018-08-30T22:39:48.030Z,2.37
2018-08-30T22:44:51.809Z,2.93
2018-08-30T22:49:55.938Z,3.00
2018-08-30T22:54:59.729Z,2.90
2018-08-30T23:00:03.733Z,2.30
2018-08-30T23:05:07.790Z,3.03
2018-08-30T23:10:11.693Z,2.63
2018-08-30T23:15:15.877Z,2.67
2018-08-30T23:20:19.710Z,2.40
2018-08-30T23:25:23.790Z,2.50
2018-08-30T23:30:27.628Z,2.90
2018-08-30T23:35:32.055Z,2.77
2018-08-30T23:40:35.896Z,2.63
2018-08-30T23:45:40.011Z,2.77
2018-08-30T23:50:44.067Z,2.70
2018-08-30T23:55:47.881Z,2.50
